Time;durP1;ratioP1;P1;durP2;ratioP2;P2;SDS_P1;SDS_P2;PMS_P1;PMS_P2;Temp;Humidity;BMP_temperature;BMP_pressure;BME280_temperature;BME280_humidity;BME280_pressure;Samples;Min_cycle;Max_cycle;Signal;HPM_P1;HPM_P2
2021/07/21 00:00:25;;;;;;;0.95;0.75;;;16.30;70.90;;;;;;5058250;28;20466;-84
2021/07/21 00:02:51;;;;;;;;;;;16.30;71.00;;;;;;5075652;28;20123;-83
2021/07/21 00:05:19;;;;;;;0.80;0.70;;;16.20;70.90;;;;;;5092667;28;19959;-83
2021/07/21 00:07:45;;;;;;;0.68;0.60;;;16.20;71.00;;;;;;5092934;28;20560;-83
2021/07/21 00:10:14;;;;;;;2.42;0.90;;;16.20;71.10;;;;;;5075143;28;20089;-83
2021/07/21 00:15:21;;;;;;;0.70;0.70;;;16.10;71.30;;;;;;5092609;28;20494;-83
2021/07/21 00:17:48;;;;;;;0.95;0.60;;;16.10;71.40;;;;;;5057034;28;20048;-83
2021/07/21 00:20:15;;;;;;;1.10;0.73;;;16.10;71.50;;;;;;5092803;28;20482;-83
2021/07/21 00:22:44;;;;;;;0.95;0.70;;;16.00;71.60;;;;;;5074294;28;20375;-83
2021/07/21 00:25:13;;;;;;;1.10;0.77;;;16.00;71.70;;;;;;5073018;28;20047;-84
2021/07/21 00:27:39;;;;;;;1.00;0.70;;;16.10;71.80;;;;;;5072519;28;20040;-84
2021/07/21 00:30:08;;;;;;;0.80;0.70;;;16.00;71.80;;;;;;5092556;28;20089;-84
2021/07/21 00:32:33;;;;;;;1.13;0.90;;;16.00;71.90;;;;;;5092296;28;20047;-83
2021/07/21 00:35:00;;;;;;;0.73;0.65;;;15.90;72.00;;;;;;5040690;28;20043;-83
2021/07/21 00:37:25;;;;;;;0.70;0.70;;;15.90;72.10;;;;;;5040799;28;20451;-83
2021/07/21 00:39:51;;;;;;;1.25;0.88;;;16.00;72.20;;;;;;5074124;28;20036;-83
2021/07/21 00:42:17;;;;;;;0.80;0.60;;;15.90;72.20;;;;;;5074750;28;20040;-83
2021/07/21 00:44:44;;;;;;;1.17;0.80;;;15.90;72.30;;;;;;5058065;28;20036;-83
2021/07/21 00:47:10;;;;;;;1.17;0.70;;;15.90;72.40;;;;;;5041062;28;20047;-83
2021/07/21 00:49:35;;;;;;;0.77;0.70;;;15.90;72.50;;;;;;5074129;28;20054;-83
2021/07/21 00:52:04;;;;;;;1.08;0.90;;;15.80;72.50;;;;;;5074015;28;20122;-83
2021/07/21 00:54:32;;;;;;;1.10;0.70;;;15.90;72.70;;;;;;5092144;28;20476;-83
2021/07/21 00:56:59;;;;;;;1.42;1.00;;;15.80;72.60;;;;;;5055619;28;20441;-83
2021/07/21 00:59:26;;;;;;;1.02;0.82;;;15.80;72.70;;;;;;5074189;28;20048;-83
2021/07/21 01:01:52;;;;;;;1.10;0.90;;;15.80;72.70;;;;;;5073941;28;20039;-83
2021/07/21 01:04:17;;;;;;;0.75;0.75;;;15.70;72.70;;;;;;5074043;28;20048;-83
2021/07/21 01:06:43;;;;;;;1.30;0.80;;;15.80;72.80;;;;;;5074341;28;20122;-83
2021/07/21 01:09:09;;;;;;;0.70;0.60;;;15.80;72.90;;;;;;5073391;28;20032;-83
2021/07/21 01:11:43;;;;;;;1.25;0.93;;;15.70;73.00;;;;;;5092394;28;20465;-83
2021/07/21 01:14:17;;;;;;;1.73;1.17;;;15.80;73.20;;;;;;5073833;28;20068;-83
2021/07/21 01:16:48;;;;;;;0.73;0.73;;;15.70;73.20;;;;;;5091912;28;20043;-82
2021/07/21 01:19:29;;;;;;;0.65;0.60;;;15.70;73.30;;;;;;5089869;28;20044;-83
2021/07/21 01:22:15;;;;;;;1.20;0.80;;;15.70;73.30;;;;;;5058655;28;20043;-82
2021/07/21 01:25:05;;;;;;;0.65;0.60;;;15.60;73.30;;;;;;5091793;28;20043;-82
2021/07/21 01:27:37;;;;;;;1.35;0.82;;;15.60;73.40;;;;;;5071825;28;20390;-82
2021/07/21 01:30:16;;;;;;;0.82;0.77;;;15.60;73.40;;;;;;5090215;28;20040;-83
2021/07/21 01:32:46;;;;;;;1.25;0.90;;;15.60;73.60;;;;;;5056772;28;20125;-83
2021/07/21 01:35:18;;;;;;;1.10;0.80;;;15.50;73.60;;;;;;5040566;28;20178;-83
2021/07/21 01:37:51;;;;;;;1.30;0.73;;;15.50;73.70;;;;;;5075754;28;20097;-83
2021/07/21 01:40:22;;;;;;;1.10;0.80;;;15.50;73.70;;;;;;5078079;28;20051;-82
2021/07/21 01:42:50;;;;;;;;;;;15.40;73.70;;;;;;5061182;28;20127;-83
2021/07/21 01:45:16;;;;;;;0.98;0.88;;;15.50;73.70;;;;;;5073127;28;19956;-83
2021/07/21 01:47:44;;;;;;;1.30;0.75;;;15.50;73.70;;;;;;5076513;28;20494;-83
2021/07/21 01:50:11;;;;;;;0.75;0.60;;;15.30;73.80;;;;;;5094579;28;20044;-83
2021/07/21 01:52:39;;;;;;;0.68;0.60;;;15.40;73.90;;;;;;5076893;28;20044;-83
2021/07/21 01:55:06;;;;;;;0.88;0.70;;;15.30;74.00;;;;;;5060364;28;20035;-83
2021/07/21 01:57:32;;;;;;;1.10;0.80;;;15.40;74.10;;;;;;5059989;28;20040;-83
2021/07/21 01:59:59;;;;;;;0.80;0.60;;;15.30;74.10;;;;;;5094896;28;20044;-83
2021/07/21 02:02:27;;;;;;;0.82;0.75;;;15.30;74.20;;;;;;5077053;28;20483;-83
2021/07/21 02:04:53;;;;;;;0.95;0.80;;;15.30;74.20;;;;;;5043348;28;20123;-83
2021/07/21 02:07:22;;;;;;;1.65;0.98;;;15.40;74.30;;;;;;5059796;28;20481;-83
2021/07/21 02:09:48;;;;;;;1.30;0.90;;;15.30;74.30;;;;;;5076155;28;20402;-83
2021/07/21 02:12:14;;;;;;;1.17;0.90;;;15.40;74.40;;;;;;5059075;28;20036;-83
2021/07/21 02:14:42;;;;;;;0.85;0.68;;;15.30;74.40;;;;;;5076460;28;20067;-83
2021/07/21 02:17:10;;;;;;;0.98;0.70;;;15.20;74.40;;;;;;5043197;28;20044;-83
2021/07/21 02:19:36;;;;;;;1.40;0.75;;;15.20;74.50;;;;;;5059652;28;20036;-83
2021/07/21 02:22:02;;;;;;;1.30;0.80;;;15.30;75.30;;;;;;5076265;28;20044;-83
2021/07/21 02:24:30;;;;;;;1.55;1.00;;;15.20;74.70;;;;;;5094351;28;20040;-83
2021/07/21 02:26:56;;;;;;;1.17;0.85;;;15.20;74.70;;;;;;5058477;28;20043;-83
2021/07/21 02:29:23;;;;;;;0.65;0.65;;;15.20;74.70;;;;;;5074277;28;20032;-83
2021/07/21 02:31:58;;;;;;;1.52;1.13;;;15.20;74.80;;;;;;5076051;28;20050;-83
2021/07/21 02:34:24;;;;;;;1.00;0.88;;;15.10;74.80;;;;;;5074369;28;20474;-83
2021/07/21 02:36:50;;;;;;;1.67;0.90;;;15.10;74.90;;;;;;5074045;28;20044;-83
2021/07/21 02:39:16;;;;;;;1.17;0.95;;;15.10;75.00;;;;;;5059057;28;20410;-84
2021/07/21 02:41:43;;;;;;;0.70;0.70;;;15.10;75.00;;;;;;5059017;28;20044;-83
2021/07/21 02:44:09;;;;;;;1.08;0.80;;;15.00;75.00;;;;;;5076113;28;20119;-83
2021/07/21 02:46:35;;;;;;;1.40;0.90;;;15.00;75.10;;;;;;5059774;28;20044;-83
2021/07/21 02:49:02;;;;;;;1.00;0.77;;;15.00;75.20;;;;;;5093709;28;20036;-83
2021/07/21 02:51:37;;;;;;;0.95;0.70;;;14.90;75.20;;;;;;5076778;28;20065;-84
2021/07/21 02:54:26;;;;;;;1.17;0.90;;;14.90;75.30;;;;;;5044330;28;20074;-84
2021/07/21 02:56:57;;;;;;;0.90;0.75;;;14.90;75.40;;;;;;5059806;28;20082;-83
2021/07/21 02:59:30;;;;;;;0.65;0.65;;;14.90;75.40;;;;;;5073471;28;20083;-83
2021/07/21 03:02:00;;;;;;;0.82;0.68;;;14.90;75.40;;;;;;5096082;28;20429;-83
2021/07/21 03:04:27;;;;;;;1.00;0.70;;;14.90;75.40;;;;;;5067285;28;20051;-83
2021/07/21 03:06:54;;;;;;;1.00;0.80;;;14.90;75.50;;;;;;5093716;28;20052;-83
2021/07/21 03:09:21;;;;;;;1.58;0.88;;;14.90;75.50;;;;;;5058550;28;20478;-83
2021/07/21 03:11:52;;;;;;;1.27;0.95;;;14.80;76.10;;;;;;5058852;28;20044;-83
2021/07/21 03:14:20;;;;;;;1.33;0.80;;;14.80;75.60;;;;;;5058488;28;20040;-83
2021/07/21 03:16:48;;;;;;;1.10;0.80;;;14.80;75.60;;;;;;5075729;28;20050;-83
2021/07/21 03:19:16;;;;;;;0.85;0.80;;;14.80;75.70;;;;;;5093360;28;20051;-83
2021/07/21 03:21:43;;;;;;;0.70;0.63;;;14.80;75.70;;;;;;5042007;28;20044;-83
2021/07/21 03:24:10;;;;;;;0.90;0.75;;;14.80;75.80;;;;;;5093422;28;20044;-82
2021/07/21 03:26:37;;;;;;;0.70;0.65;;;14.60;75.70;;;;;;5041872;28;20051;-84
2021/07/21 03:29:04;;;;;;;0.80;0.80;;;14.70;75.80;;;;;;5058401;28;20040;-83
2021/07/21 03:31:30;;;;;;;1.20;0.80;;;14.70;75.90;;;;;;5042737;28;20040;-82
2021/07/21 03:34:04;;;;;;;1.58;0.77;;;14.80;76.00;;;;;;5093319;28;20486;-82
2021/07/21 03:36:35;;;;;;;0.80;0.77;;;14.70;76.00;;;;;;5073723;28;20036;-82
2021/07/21 03:39:02;;;;;;;1.25;0.90;;;14.70;76.10;;;;;;5041914;28;20039;-82
2021/07/21 03:41:32;;;;;;;1.50;0.90;;;14.60;76.00;;;;;;5093003;28;20044;-82
2021/07/21 03:43:59;;;;;;;1.10;0.85;;;14.60;76.10;;;;;;5092753;28;20389;-83
2021/07/21 03:46:25;;;;;;;1.17;0.90;;;14.70;76.10;;;;;;5058337;28;20093;-82
2021/07/21 03:48:51;;;;;;;1.25;0.70;;;14.60;76.20;;;;;;5057282;28;20482;-83
2021/07/21 03:51:16;;;;;;;1.50;0.80;;;14.60;76.10;;;;;;5075050;28;20032;-83
2021/07/21 03:53:43;;;;;;;0.98;0.75;;;14.60;76.10;;;;;;5075366;28;20040;-82
2021/07/21 03:56:09;;;;;;;0.93;0.80;;;14.60;76.20;;;;;;5074842;28;20093;-82
2021/07/21 03:58:35;;;;;;;1.50;0.80;;;14.50;76.20;;;;;;5092665;28;20044;-82
2021/07/21 04:01:02;;;;;;;1.23;0.90;;;14.60;76.20;;;;;;5073618;28;20055;-82
2021/07/21 04:03:29;;;;;;;1.58;1.08;;;14.60;76.30;;;;;;5092666;28;20032;-82
2021/07/21 04:05:55;;;;;;;1.25;0.80;;;14.50;76.30;;;;;;5074521;28;20040;-82
2021/07/21 04:08:23;;;;;;;0.70;0.70;;;14.60;76.40;;;;;;5074328;28;20109;-82
2021/07/21 04:10:53;;;;;;;1.33;0.80;;;14.60;76.40;;;;;;5057735;28;20407;-82
2021/07/21 04:13:20;;;;;;;1.50;1.00;;;14.60;76.40;;;;;;5058504;28;20092;-82
2021/07/21 04:15:47;;;;;;;1.00;0.80;;;14.60;76.40;;;;;;5055862;28;20040;-82
2021/07/21 04:18:14;;;;;;;0.90;0.73;;;14.60;76.40;;;;;;5057844;28;20394;-82
2021/07/21 04:20:40;;;;;;;1.10;0.70;;;14.70;76.40;;;;;;5074256;28;20044;-82
2021/07/21 04:23:07;;;;;;;0.98;0.80;;;14.60;76.40;;;;;;5039823;28;20119;-82
2021/07/21 04:25:35;;;;;;;0.98;0.80;;;14.70;76.50;;;;;;5057644;28;20500;-81
2021/07/21 04:28:02;;;;;;;1.33;0.95;;;14.50;76.40;;;;;;5055648;28;20060;-82
2021/07/21 04:30:30;;;;;;;0.80;0.60;;;14.50;76.40;;;;;;5074292;28;20553;-82
2021/07/21 04:32:58;;;;;;;0.98;0.65;;;14.60;76.40;;;;;;5057919;28;20085;-82
2021/07/21 04:35:26;;;;;;;1.20;0.65;;;14.70;76.50;;;;;;5092388;28;20036;-82
2021/07/21 04:37:52;;;;;;;1.13;0.80;;;14.70;76.50;;;;;;5092908;28;20032;-83
2021/07/21 04:40:18;;;;;;;1.48;0.93;;;14.60;76.40;;;;;;5057816;28;20039;-83
2021/07/21 04:42:44;;;;;;;0.98;0.75;;;14.70;76.50;;;;;;5057370;28;20042;-82
2021/07/21 04:45:11;;;;;;;1.23;0.77;;;14.60;76.40;;;;;;5057625;28;20047;-82
2021/07/21 04:47:39;;;;;;;1.17;0.90;;;14.70;76.50;;;;;;5057763;28;20134;-82
2021/07/21 04:50:08;;;;;;;1.20;0.85;;;14.70;76.50;;;;;;5056252;28;20047;-82
2021/07/21 04:52:34;;;;;;;1.40;1.00;;;14.80;76.50;;;;;;5071997;28;20482;-82
2021/07/21 04:55:00;;;;;;;0.52;0.52;;;14.90;76.50;;;;;;5092283;28;20056;-82
2021/07/21 04:57:26;;;;;;;1.25;0.90;;;14.90;76.50;;;;;;5057191;28;20402;-83
2021/07/21 04:59:52;;;;;;;0.65;0.60;;;14.90;76.40;;;;;;5057917;28;20040;-82
2021/07/21 05:02:18;;;;;;;1.23;0.90;;;15.00;76.30;;;;;;5040643;28;20482;-83
2021/07/21 05:04:44;;;;;;;1.27;0.82;;;15.00;76.30;;;;;;5056306;28;20102;-83
2021/07/21 05:07:10;;;;;;;1.58;0.70;;;15.00;76.20;;;;;;5073910;28;20400;-83
2021/07/21 05:09:36;;;;;;;1.15;0.70;;;15.10;76.20;;;;;;5057650;28;20408;-83
2021/07/21 05:12:02;;;;;;;1.20;0.80;;;15.20;76.80;;;;;;5093176;28;20124;-83
2021/07/21 05:14:28;;;;;;;1.00;0.82;;;15.20;76.10;;;;;;5043967;28;20063;-83
2021/07/21 05:16:54;;;;;;;0.98;0.70;;;15.30;76.10;;;;;;5044135;28;20036;-84
2021/07/21 05:19:20;;;;;;;1.17;0.80;;;15.40;76.00;;;;;;5043785;28;20036;-84
2021/07/21 05:21:45;;;;;;;0.88;0.70;;;15.40;76.00;;;;;;5077256;28;20099;-84
2021/07/21 05:24:11;;;;;;;0.68;0.60;;;15.50;75.90;;;;;;5077170;28;20131;-84
2021/07/21 05:26:40;;;;;;;1.50;0.75;;;15.60;75.80;;;;;;5075754;28;20132;-84
2021/07/21 05:29:06;;;;;;;0.60;0.50;;;15.70;75.80;;;;;;5060868;28;20114;-83
2021/07/21 05:31:32;;;;;;;2.03;1.00;;;15.80;75.70;;;;;;5060276;28;20044;-83
2021/07/21 05:33:58;;;;;;;1.17;0.80;;;15.90;75.60;;;;;;5060373;28;20040;-83
2021/07/21 05:36:25;;;;;;;0.90;0.73;;;16.00;75.60;;;;;;5077273;28;20071;-84
2021/07/21 05:38:51;;;;;;;1.00;0.73;;;16.00;75.40;;;;;;5060208;28;20036;-83
2021/07/21 05:41:17;;;;;;;2.20;1.00;;;16.10;75.30;;;;;;5061141;28;20039;-83
2021/07/21 05:43:42;;;;;;;1.05;0.77;;;16.20;75.20;;;;;;5044576;28;20127;-84
2021/07/21 05:46:08;;;;;;;0.95;0.80;;;16.30;75.10;;;;;;5060373;28;20114;-84
2021/07/21 05:48:34;;;;;;;1.20;0.80;;;16.40;75.10;;;;;;5060710;28;20040;-84
2021/07/21 05:50:59;;;;;;;1.30;0.93;;;16.50;75.00;;;;;;5075997;28;20037;-84
2021/07/21 05:53:25;;;;;;;1.20;0.93;;;16.60;75.00;;;;;;5041676;28;20141;-84
2021/07/21 05:55:51;;;;;;;1.42;0.90;;;16.70;75.00;;;;;;5077784;28;20111;-84
2021/07/21 05:58:17;;;;;;;0.93;0.65;;;16.80;74.90;;;;;;5076882;28;20040;-84
2021/07/21 06:00:43;;;;;;;1.73;1.00;;;16.80;74.80;;;;;;5060054;28;20047;-84
2021/07/21 06:03:09;;;;;;;1.85;1.02;;;16.90;74.80;;;;;;5059999;28;20044;-85
2021/07/21 06:05:38;;;;;;;1.45;0.80;;;17.00;74.70;;;;;;5045479;28;20425;-83
2021/07/21 06:08:05;;;;;;;1.42;0.80;;;17.10;74.70;;;;;;5081739;28;20079;-84
2021/07/21 06:10:31;;;;;;;1.08;0.98;;;17.10;74.60;;;;;;5043844;28;20032;-83
2021/07/21 06:12:57;;;;;;;2.60;1.40;;;17.20;74.60;;;;;;5060163;28;20047;-83
2021/07/21 06:15:27;;;;;;;0.95;0.80;;;17.30;74.70;;;;;;5060041;28;20482;-83
2021/07/21 06:17:53;;;;;;;1.48;0.95;;;17.30;74.70;;;;;;5060615;28;20047;-84
2021/07/21 06:20:21;;;;;;;1.65;0.90;;;17.40;74.60;;;;;;5076151;28;20033;-83
2021/07/21 06:22:51;;;;;;;1.75;1.10;;;17.50;74.70;;;;;;5041680;28;20104;-83
2021/07/21 06:25:23;;;;;;;2.33;1.38;;;17.60;74.70;;;;;;5077488;28;20032;-84
2021/07/21 06:28:00;;;;;;;1.73;1.10;;;17.50;74.60;;;;;;5043750;28;20040;-83
2021/07/21 06:30:28;;;;;;;1.40;1.00;;;17.70;74.70;;;;;;5061151;28;20047;-84
2021/07/21 06:32:54;;;;;;;1.85;1.33;;;17.60;74.60;;;;;;5015316;28;20061;-81
2021/07/21 06:35:22;;;;;;;1.42;1.27;;;17.70;74.50;;;;;;5031819;28;20068;-80
2021/07/21 06:37:52;;;;;;;1.60;1.10;;;17.80;74.50;;;;;;4995984;28;20424;-81
2021/07/21 06:40:22;;;;;;;1.20;0.90;;;17.90;74.60;;;;;;4964038;28;20045;-79
2021/07/21 06:42:50;;;;;;;1.55;1.02;;;17.90;74.60;;;;;;4979143;28;20046;-80
2021/07/21 06:49:13;;;;;;;1.95;1.13;;;18.00;74.60;;;;;;5011072;28;20044;-80
2021/07/21 06:51:39;;;;;;;2.40;1.30;;;18.10;74.40;;;;;;5011277;28;20062;-78
2021/07/21 06:54:05;;;;;;;1.67;1.23;;;18.20;74.40;;;;;;5011897;28;20122;-79
2021/07/21 06:56:31;;;;;;;2.25;1.23;;;18.20;74.30;;;;;;4963455;28;20543;-79
2021/07/21 06:58:57;;;;;;;1.92;1.30;;;18.30;74.30;;;;;;4982228;28;20041;-79
2021/07/21 07:01:34;;;;;;;3.05;1.30;;;18.30;74.30;;;;;;4982343;28;20042;-83
2021/07/21 07:04:00;;;;;;;1.48;1.10;;;18.30;74.30;;;;;;4991746;28;20050;-78
2021/07/21 07:06:26;;;;;;;1.52;1.13;;;18.50;74.20;;;;;;4975913;28;20048;-81
2021/07/21 07:08:51;;;;;;;1.48;1.00;;;18.50;74.10;;;;;;4991365;28;20060;-80
2021/07/21 07:11:17;;;;;;;2.05;1.25;;;18.60;74.20;;;;;;5017932;28;20127;-79
2021/07/21 07:13:43;;;;;;;1.25;0.90;;;18.60;74.10;;;;;;5034470;28;20053;-80
2021/07/21 07:16:11;;;;;;;1.25;0.90;;;18.70;74.00;;;;;;5034461;28;20091;-81
2021/07/21 07:18:36;;;;;;;1.67;1.10;;;18.80;74.10;;;;;;5018342;28;20534;-81
2021/07/21 07:21:02;;;;;;;2.85;1.50;;;18.80;74.10;;;;;;5017850;28;20134;-81
2021/07/21 07:23:28;;;;;;;2.22;1.60;;;18.80;74.20;;;;;;5002402;28;20410;-79
2021/07/21 07:25:54;;;;;;;2.10;1.40;;;18.80;74.20;;;;;;5035935;28;20037;-79
2021/07/21 07:28:20;;;;;;;1.70;1.23;;;18.90;74.10;;;;;;5037654;28;20068;-80
2021/07/21 07:30:45;;;;;;;2.08;1.60;;;18.90;74.10;;;;;;5034936;28;20041;-80
2021/07/21 07:33:11;;;;;;;2.35;1.30;;;19.00;74.00;;;;;;5053693;28;20136;-80
2021/07/21 07:35:39;;;;;;;1.95;1.38;;;19.00;74.10;;;;;;5050744;28;20059;-79
2021/07/21 07:38:05;;;;;;;2.08;1.33;;;19.10;74.10;;;;;;5094536;28;20051;-80
2021/07/21 07:40:31;;;;;;;1.92;1.15;;;19.10;74.00;;;;;;5075887;28;20048;-80
2021/07/21 07:42:56;;;;;;;2.17;1.42;;;19.20;74.00;;;;;;5091955;28;20040;-79
2021/07/21 07:45:22;;;;;;;2.28;1.58;;;19.30;74.00;;;;;;5074733;28;20089;-80
2021/07/21 07:47:48;;;;;;;2.17;1.35;;;19.40;73.90;;;;;;5091712;28;20512;-81
2021/07/21 07:50:14;;;;;;;1.42;1.10;;;19.50;73.80;;;;;;5093678;28;20044;-81
2021/07/21 07:52:57;;;;;;;2.22;1.40;;;19.50;73.70;;;;;;5058461;28;20044;-80
2021/07/21 07:55:23;;;;;;;2.10;1.40;;;19.60;74.00;;;;;;5073471;28;20406;-78
2021/07/21 07:57:49;;;;;;;2.05;1.58;;;19.60;73.80;;;;;;5075623;28;20047;-80
2021/07/21 08:00:16;;;;;;;1.92;1.30;;;19.60;73.70;;;;;;5093065;28;20120;-82
2021/07/21 08:02:41;;;;;;;1.45;1.10;;;19.60;73.70;;;;;;5041923;28;20162;-78
2021/07/21 08:05:08;;;;;;;1.42;1.08;;;19.70;73.50;;;;;;5093745;28;20123;-80
2021/07/21 08:07:35;;;;;;;3.15;1.50;;;19.70;73.70;;;;;;5075700;28;20036;-81
2021/07/21 08:10:02;;;;;;;1.85;1.20;;;19.70;73.90;;;;;;5059997;28;20036;-79
2021/07/21 08:13:33;;;;;;;2.20;1.23;;;19.70;73.90;;;;;;5040975;28;20504;-83
2021/07/21 08:17:04;;;;;;;1.80;1.20;;;19.80;73.90;;;;;;4969887;28;20485;-84
2021/07/21 08:19:29;;;;;;;1.67;1.17;;;19.80;73.80;;;;;;4933855;29;20115;-80
2021/07/21 08:21:57;;;;;;;1.70;1.40;;;19.90;73.80;;;;;;4933874;29;20059;-80
2021/07/21 08:24:24;;;;;;;1.70;1.10;;;20.10;73.90;;;;;;4933817;29;20151;-82
2021/07/21 08:26:50;;;;;;;1.75;1.10;;;20.30;73.50;;;;;;4917807;29;20422;-81
2021/07/21 08:29:18;;;;;;;1.63;1.13;;;20.50;73.00;;;;;;4917076;29;20066;-80
2021/07/21 08:31:48;;;;;;;1.95;1.10;;;20.60;72.80;;;;;;4921329;29;20035;-84
2021/07/21 08:34:23;;;;;;;2.05;1.27;;;20.80;72.60;;;;;;4915474;29;20060;-82
2021/07/21 08:36:48;;;;;;;2.05;1.48;;;21.10;72.40;;;;;;4912886;29;20052;-81
2021/07/21 08:39:14;;;;;;;2.03;1.20;;;21.30;72.00;;;;;;4899554;29;20103;-80
2021/07/21 08:41:41;;;;;;;2.25;1.50;;;21.30;71.90;;;;;;4919960;29;20478;-80
2021/07/21 08:44:07;;;;;;;2.00;1.42;;;21.30;71.60;;;;;;4900707;29;20048;-80
2021/07/21 08:46:37;;;;;;;2.05;1.27;;;21.40;71.70;;;;;;4921019;28;20396;-82
2021/07/21 08:49:07;;;;;;;3.92;1.40;;;21.50;71.90;;;;;;4999415;28;20185;-79
2021/07/21 08:51:34;;;;;;;2.13;1.30;;;21.80;71.60;;;;;;5033172;28;20083;-80
2021/07/21 08:54:00;;;;;;;1.67;1.23;;;21.90;71.10;;;;;;5016717;28;20045;-80
2021/07/21 08:56:26;;;;;;;2.33;1.27;;;22.20;71.00;;;;;;5016787;28;20038;-80
2021/07/21 08:58:54;;;;;;;1.02;0.98;;;22.40;70.40;;;;;;5016784;28;20052;-81
2021/07/21 09:01:20;;;;;;;2.45;1.50;;;22.40;70.20;;;;;;5017102;28;20053;-81
2021/07/21 09:03:46;;;;;;;2.17;1.30;;;22.70;70.10;;;;;;5017677;28;20068;-82
2021/07/21 09:06:13;;;;;;;2.25;1.40;;;22.80;69.60;;;;;;5036035;28;20094;-80
2021/07/21 09:08:38;;;;;;;2.47;1.33;;;23.10;69.10;;;;;;5074148;28;20485;-78
2021/07/21 09:11:05;;;;;;;1.95;1.40;;;23.30;68.70;;;;;;5053556;28;20032;-79
2021/07/21 09:13:34;;;;;;;1.30;1.20;;;23.40;68.50;;;;;;5067372;28;20059;-80
2021/07/21 09:16:06;;;;;;;1.48;1.10;;;23.30;68.40;;;;;;5077032;28;20119;-83
2021/07/21 09:18:46;;;;;;;1.25;1.02;;;23.30;68.60;;;;;;5078359;28;20039;-78
2021/07/21 09:21:15;;;;;;;1.55;1.08;;;23.40;68.70;;;;;;5097487;28;20040;-78
2021/07/21 09:23:45;;;;;;;1.73;1.40;;;23.40;68.80;;;;;;5100393;28;20031;-78
2021/07/21 09:26:39;;;;;;;2.58;1.15;;;23.50;68.70;;;;;;5100833;28;20055;-78
2021/07/21 09:29:05;;;;;;;1.73;1.20;;;23.60;68.60;;;;;;5099277;28;20043;-78
2021/07/21 09:31:42;;;;;;;1.67;1.17;;;23.50;68.60;;;;;;5098167;28;20043;-79
2021/07/21 09:34:13;;;;;;;1.67;1.20;;;23.60;68.70;;;;;;5079852;28;20042;-81
2021/07/21 09:36:39;;;;;;;2.08;1.15;;;23.70;68.50;;;;;;5081422;28;20048;-80
2021/07/21 09:39:06;;;;;;;2.63;1.40;;;23.60;68.20;;;;;;5077333;28;20218;-78
2021/07/21 09:41:32;;;;;;;1.60;1.30;;;23.70;68.20;;;;;;5097233;28;20068;-80
2021/07/21 09:44:00;;;;;;;1.70;1.10;;;23.70;68.20;;;;;;5098673;28;20059;-80
2021/07/21 09:46:30;;;;;;;1.02;0.90;;;23.60;68.00;;;;;;5077290;28;20122;-81
2021/07/21 09:48:56;;;;;;;1.45;1.08;;;23.70;68.00;;;;;;5060045;28;20077;-78
2021/07/21 09:51:29;;;;;;;1.13;0.90;;;23.80;67.80;;;;;;5076962;28;20032;-78
2021/07/21 09:53:55;;;;;;;1.02;0.80;;;24.00;67.40;;;;;;5094657;28;20040;-79
2021/07/21 09:56:30;;;;;;;1.52;1.20;;;24.30;67.00;;;;;;5059680;28;20049;-78
2021/07/21 09:59:22;;;;;;;1.33;1.10;;;24.50;66.50;;;;;;5076097;28;20055;-78
2021/07/21 10:01:51;;;;;;;1.20;1.00;;;24.60;66.10;;;;;;5093646;28;20516;-79
2021/07/21 10:07:49;;;;;;;1.58;1.10;;;25.10;65.40;;;;;;5050467;28;20064;-86
2021/07/21 10:10:24;;;;;;;1.05;0.95;;;25.30;65.00;;;;;;5061561;28;20069;-85
2021/07/21 10:13:21;;;;;;;1.42;1.20;;;25.10;64.90;;;;;;5062813;28;20059;-84
2021/07/21 10:15:48;;;;;;;1.45;1.10;;;25.10;65.00;;;;;;5033893;28;20067;-86
2021/07/21 10:18:16;;;;;;;1.67;1.20;;;25.00;64.90;;;;;;5020680;28;20048;-86
2021/07/21 10:20:44;;;;;;;1.20;1.08;;;24.70;65.30;;;;;;5015508;28;20091;-87
2021/07/21 10:23:15;;;;;;;1.65;1.10;;;24.70;65.30;;;;;;5000342;28;20046;-86
2021/07/21 10:25:42;;;;;;;1.83;1.15;;;24.90;65.10;;;;;;4938993;29;20047;-86
2021/07/21 10:28:10;;;;;;;1.50;1.20;;;24.90;64.60;;;;;;4938596;29;20445;-87
2021/07/21 10:30:39;;;;;;;1.45;1.10;;;25.10;64.30;;;;;;4923674;29;20040;-85
2021/07/21 10:33:05;;;;;;;1.42;1.23;;;25.20;63.90;;;;;;4954753;28;20046;-86
2021/07/21 10:35:32;;;;;;;1.77;1.30;;;25.40;63.70;;;;;;4922326;29;20038;-86
2021/07/21 10:37:58;;;;;;;1.70;1.20;;;25.40;63.40;;;;;;4940508;29;20039;-84
2021/07/21 10:40:28;;;;;;;2.25;1.45;;;25.50;63.30;;;;;;4923044;29;20051;-83
2021/07/21 10:42:55;;;;;;;2.08;1.50;;;25.40;62.90;;;;;;4953876;29;20500;-84
2021/07/21 10:45:27;;;;;;;2.08;1.58;;;25.40;62.90;;;;;;4954004;28;20465;-83
2021/07/21 10:48:05;;;;;;;2.03;1.70;;;25.30;63.00;;;;;;4938107;28;20043;-83
2021/07/21 10:59:19;;;;;;;1.65;1.25;;;25.20;62.90;;;;;;5096965;28;20044;-84
2021/07/21 11:01:47;;;;;;;2.05;1.45;;;25.50;62.60;;;;;;5075665;28;20044;-78
2021/07/21 11:04:13;;;;;;;1.67;1.20;;;25.80;62.50;;;;;;5094038;28;20070;-78
2021/07/21 11:06:42;;;;;;;1.27;1.17;;;25.60;61.80;;;;;;5094018;28;20047;-78
2021/07/21 11:09:24;;;;;;;1.45;1.10;;;25.50;62.00;;;;;;5075711;28;20032;-81
2021/07/21 11:11:56;;;;;;;2.58;1.50;;;25.40;62.40;;;;;;5076159;28;20445;-79
2021/07/21 11:14:25;;;;;;;2.33;1.50;;;25.40;62.30;;;;;;5062005;28;20040;-80
2021/07/21 11:16:53;;;;;;;1.77;1.38;;;25.40;62.10;;;;;;5075935;28;20111;-80
2021/07/21 11:19:41;;;;;;;1.60;1.27;;;25.40;62.00;;;;;;5076566;28;20140;-77
2021/07/21 11:22:10;;;;;;;1.73;1.33;;;25.30;62.00;;;;;;5075754;28;20044;-82
2021/07/21 11:25:11;;;;;;;1.92;1.30;;;25.50;61.90;;;;;;5075329;28;20123;-79
2021/07/21 11:27:39;;;;;;;1.80;1.20;;;25.80;61.20;;;;;;5091204;28;20477;-81
2021/07/21 11:30:33;;;;;;;1.75;1.30;;;25.90;60.80;;;;;;5075008;28;20105;-80
2021/07/21 11:33:32;;;;;;;1.73;1.25;;;26.00;60.40;;;;;;5057063;28;20027;-81
2021/07/21 11:35:57;;;;;;;1.52;1.05;;;26.10;60.40;;;;;;5091775;28;20067;-80
2021/07/21 11:38:45;;;;;;;1.67;1.30;;;26.10;60.30;;;;;;5074875;28;20059;-79
2021/07/21 11:41:31;;;;;;;1.70;1.20;;;26.10;60.40;;;;;;5091424;28;20466;-79
2021/07/21 11:44:04;;;;;;;1.38;1.05;;;26.00;60.50;;;;;;5091009;28;20044;-79
2021/07/21 11:46:42;;;;;;;1.58;1.10;;;26.00;61.00;;;;;;5058993;28;20032;-86
2021/07/21 11:49:08;;;;;;;1.50;1.00;;;26.00;61.00;;;;;;5086685;28;20111;-79
2021/07/21 11:51:33;;;;;;;1.48;1.05;;;25.90;61.20;;;;;;5097188;28;20075;-82
2021/07/21 11:54:20;;;;;;;1.08;0.98;;;25.90;61.30;;;;;;5073752;28;20051;-83
2021/07/21 11:56:47;;;;;;;0.80;0.80;;;25.90;61.40;;;;;;5082075;28;20071;-78
2021/07/21 11:59:13;;;;;;;1.85;1.30;;;25.90;61.40;;;;;;5084098;28;20513;-79
2021/07/21 12:01:38;;;;;;;2.00;1.40;;;25.90;61.30;;;;;;5079449;28;20040;-76
2021/07/21 12:04:30;;;;;;;1.92;1.50;;;25.90;61.00;;;;;;5096924;28;20047;-82
2021/07/21 12:06:55;;;;;;;2.30;1.50;;;25.80;60.90;;;;;;5101770;28;20032;-78
2021/07/21 12:09:31;;;;;;;1.27;1.17;;;26.00;60.90;;;;;;5060842;28;20071;-79
2021/07/21 12:12:02;;;;;;;1.85;1.35;;;26.00;60.50;;;;;;5100322;28;20054;-79
2021/07/21 12:14:29;;;;;;;3.20;1.40;;;26.10;60.20;;;;;;5095566;28;20059;-80
2021/07/21 12:17:08;;;;;;;2.60;1.60;;;26.20;60.10;;;;;;5093561;28;20171;-78
2021/07/21 12:19:36;;;;;;;2.08;1.40;;;26.20;59.90;;;;;;5094547;28;20040;-76
2021/07/21 12:22:07;;;;;;;1.98;1.33;;;26.20;59.80;;;;;;5078743;28;20027;-77
2021/07/21 12:24:36;;;;;;;1.92;1.27;;;26.10;59.70;;;;;;5091238;28;20508;-77
2021/07/21 12:27:02;;;;;;;1.80;1.25;;;26.10;59.80;;;;;;5074661;28;20044;-78
2021/07/21 12:29:28;;;;;;;1.30;1.15;;;26.10;59.70;;;;;;5096625;28;20032;-79
2021/07/21 12:32:11;;;;;;;1.67;1.20;;;25.90;59.70;;;;;;5078419;28;20048;-77
2021/07/21 12:34:41;;;;;;;1.75;1.33;;;25.80;60.00;;;;;;5073899;28;20048;-79
2021/07/21 12:37:08;;;;;;;;;;;25.80;60.20;;;;;;5077914;28;20059;-79
2021/07/21 12:39:34;;;;;;;1.17;1.08;;;25.80;60.20;;;;;;5096979;28;19912;-79
2021/07/21 12:42:14;;;;;;;1.42;1.10;;;25.90;60.10;;;;;;5059596;28;20046;-80
2021/07/21 12:44:44;;;;;;;1.58;1.10;;;26.00;59.80;;;;;;5053544;28;20045;-78
2021/07/21 12:47:20;;;;;;;0.98;0.98;;;26.00;59.60;;;;;;5058425;28;20029;-78
2021/07/21 12:49:49;;;;;;;2.15;1.40;;;26.10;59.60;;;;;;5036567;28;20044;-79
2021/07/21 12:52:21;;;;;;;1.95;1.25;;;26.00;59.40;;;;;;5020793;28;20039;-79
2021/07/21 12:54:49;;;;;;;2.45;1.55;;;26.00;59.40;;;;;;5003441;28;20037;-85
2021/07/21 12:57:36;;;;;;;2.25;1.40;;;25.90;59.40;;;;;;5017481;28;20044;-84
2021/07/21 13:00:13;;;;;;;2.00;1.45;;;25.70;59.60;;;;;;5043399;28;20104;-85
2021/07/21 13:02:40;;;;;;;2.00;1.38;;;25.70;59.60;;;;;;5021992;28;20052;-84
2021/07/21 13:05:36;;;;;;;1.20;1.10;;;25.80;59.60;;;;;;5020199;28;20046;-85
2021/07/21 13:08:21;;;;;;;2.05;1.45;;;25.80;59.30;;;;;;4943787;29;20107;-87
2021/07/21 13:14:31;;;;;;;1.80;1.20;;;25.80;58.90;;;;;;4881469;29;20135;-86
2021/07/21 13:17:18;;;;;;;2.63;1.70;;;25.90;59.10;;;;;;4849940;29;20057;-86
2021/07/21 13:20:43;;;;;;;1.63;1.30;;;25.80;58.70;;;;;;4858133;29;20070;-86
2021/07/21 13:24:13;;;;;;;1.90;1.30;;;25.70;58.80;;;;;;4820285;29;20907;-87